createdAt,value
2022-09-25T00:06:14.466Z,12.50
2022-09-25T00:11:14.852Z,12.20
2022-09-25T00:13:43.030Z,12.20
2022-09-25T00:16:12.038Z,12.30
2022-09-25T00:31:24.643Z,12.10
2022-09-25T00:33:52.388Z,12.10
2022-09-25T00:41:17.797Z,12.00
2022-09-25T00:43:48.873Z,12.00
2022-09-25T00:46:28.128Z,12.00
2022-09-25T00:49:20.274Z,12.00
2022-09-25T00:51:54.832Z,12.00
2022-09-25T00:54:38.741Z,11.60
2022-09-25T00:57:09.925Z,11.80
2022-09-25T00:59:41.206Z,11.80
2022-09-25T01:02:14.306Z,11.80
2022-09-25T01:04:46.183Z,11.80
2022-09-25T01:19:50.147Z,11.40
2022-09-25T01:22:55.252Z,11.50
2022-09-25T01:25:34.141Z,12.00
2022-09-25T01:28:21.254Z,11.30
2022-09-25T01:30:54.039Z,11.20
2022-09-25T01:33:27.366Z,11.20
2022-09-25T01:36:07.888Z,11.20
2022-09-25T01:38:55.452Z,11.20
2022-09-25T01:41:32.509Z,11.30
2022-09-25T01:44:07.957Z,10.90
2022-09-25T01:46:40.609Z,11.10
2022-09-25T01:49:13.833Z,11.10
2022-09-25T01:51:47.164Z,10.90
2022-09-25T01:54:22.489Z,11.10
2022-09-25T01:57:10.398Z,10.70
2022-09-25T01:59:47.080Z,11.40
2022-09-25T02:02:19.419Z,11.10
2022-09-25T02:05:14.746Z,11.20
2022-09-25T02:07:48.870Z,11.00
2022-09-25T02:10:21.830Z,10.90
2022-09-25T02:12:53.577Z,11.20
2022-09-25T02:15:34.957Z,11.20
2022-09-25T02:18:27.571Z,11.10
2022-09-25T02:21:03.978Z,11.10
2022-09-25T02:23:40.782Z,11.20
2022-09-25T02:26:14.771Z,11.20
2022-09-25T02:31:12.987Z,11.20
2022-09-25T02:36:07.074Z,11.20
2022-09-25T02:38:34.844Z,11.30
2022-09-25T02:41:11.207Z,11.40
2022-09-25T02:44:13.530Z,11.60
2022-09-25T02:49:23.123Z,11.50
2022-09-25T02:51:57.452Z,11.50
2022-09-25T02:54:44.120Z,11.50
2022-09-25T02:57:37.349Z,11.50
2022-09-25T03:00:08.523Z,11.70
2022-09-25T03:02:37.639Z,12.10
2022-09-25T03:05:07.130Z,11.50
2022-09-25T03:10:22.460Z,11.50
2022-09-25T03:15:17.107Z,11.50
2022-09-25T03:17:43.913Z,11.40
2022-09-25T03:20:10.797Z,11.80
2022-09-25T03:25:05.651Z,11.50
2022-09-25T03:32:27.022Z,11.50
2022-09-25T03:34:53.789Z,11.40
2022-09-25T03:37:20.623Z,11.40
2022-09-25T03:39:47.398Z,11.50
2022-09-25T03:42:14.411Z,11.50
2022-09-25T03:44:41.779Z,11.40
2022-09-25T03:52:03.142Z,11.90
2022-09-25T03:56:57.921Z,11.40
2022-09-25T03:59:24.689Z,11.50
2022-09-25T04:04:18.676Z,11.30
2022-09-25T04:06:46.092Z,11.20
2022-09-25T04:14:07.250Z,11.90
2022-09-25T04:16:34.220Z,11.20
2022-09-25T04:19:01.111Z,11.50
2022-09-25T04:21:27.995Z,11.40
2022-09-25T04:24:13.319Z,11.90
2022-09-25T04:26:40.109Z,11.30
2022-09-25T04:29:07.000Z,11.60
2022-09-25T04:34:02.176Z,11.30
2022-09-25T04:43:50.459Z,11.80
2022-09-25T04:46:21.987Z,11.70
2022-09-25T04:48:50.242Z,11.60
2022-09-25T04:56:15.343Z,11.30
2022-09-25T04:58:47.637Z,11.70
2022-09-25T05:01:15.792Z,11.50
2022-09-25T05:03:43.082Z,11.20
2022-09-25T05:06:10.036Z,11.50
2022-09-25T05:08:36.776Z,11.70
2022-09-25T05:18:25.715Z,11.70
2022-09-25T05:20:54.329Z,11.60
2022-09-25T05:23:22.282Z,11.50
2022-09-25T05:25:58.127Z,11.40
2022-09-25T05:30:52.461Z,11.40
2022-09-25T05:33:19.581Z,11.70
2022-09-25T05:38:15.626Z,11.40
2022-09-25T05:40:43.373Z,11.40
2022-09-25T05:43:10.637Z,11.70
2022-09-25T05:45:37.410Z,11.80
2022-09-25T05:48:06.519Z,11.30
2022-09-25T05:50:34.035Z,11.70
2022-09-25T05:53:03.099Z,11.30
2022-09-25T05:58:04.474Z,11.90
2022-09-25T06:00:33.187Z,11.70
2022-09-25T06:03:01.178Z,11.90
2022-09-25T06:05:28.084Z,11.70
2022-09-25T06:07:55.436Z,11.80
2022-09-25T06:10:23.160Z,11.60
2022-09-25T06:12:50.031Z,12.00
2022-09-25T06:20:15.914Z,11.60
2022-09-25T06:22:44.523Z,12.10
2022-09-25T06:27:38.507Z,11.70
2022-09-25T06:30:06.037Z,12.20
2022-09-25T06:34:59.976Z,11.90
2022-09-25T06:42:21.152Z,12.00
2022-09-25T06:57:12.598Z,12.00
2022-09-25T07:07:22.833Z,12.30
2022-09-25T07:12:18.563Z,12.10
2022-09-25T07:17:14.680Z,12.60
2022-09-25T07:36:55.346Z,12.90
2022-09-25T07:41:49.317Z,12.20
2022-09-25T07:49:31.532Z,12.60
2022-09-25T07:56:53.731Z,12.80
2022-09-25T07:59:20.593Z,12.40
2022-09-25T08:01:52.842Z,12.90
2022-09-25T08:04:20.778Z,12.90
2022-09-25T08:09:14.848Z,12.90
2022-09-25T08:14:08.936Z,12.80
2022-09-25T08:26:25.349Z,12.70
2022-09-25T08:33:47.914Z,12.60
2022-09-25T08:36:14.786Z,12.80
2022-09-25T08:41:18.137Z,12.90
2022-09-25T08:44:20.040Z,12.40
2022-09-25T08:47:20.348Z,13.60
2022-09-25T08:50:01.266Z,12.90
2022-09-25T08:57:45.298Z,13.30
2022-09-25T09:00:21.193Z,12.70
2022-09-25T09:02:54.239Z,12.80
2022-09-25T09:05:26.716Z,12.70
2022-09-25T09:08:02.837Z,12.70
2022-09-25T09:13:20.400Z,12.70
2022-09-25T09:15:54.632Z,12.70
2022-09-25T09:18:29.584Z,12.80
2022-09-25T09:21:05.035Z,12.50
2022-09-25T09:23:58.490Z,12.90
2022-09-25T09:26:43.556Z,12.70
2022-09-25T09:29:31.251Z,12.60
2022-09-25T09:32:28.073Z,12.90
2022-09-25T09:35:18.886Z,13.00
2022-09-25T09:38:17.804Z,12.80
2022-09-25T09:40:46.392Z,12.70
2022-09-25T09:44:01.952Z,13.00
2022-09-25T09:46:28.730Z,12.70
2022-09-25T09:49:10.539Z,12.70
2022-09-25T09:51:56.391Z,12.90
2022-09-25T09:54:35.786Z,12.80
2022-09-25T09:57:11.074Z,12.90
2022-09-25T09:59:46.566Z,13.00
2022-09-25T10:02:37.633Z,12.90
2022-09-25T10:05:10.135Z,12.80
2022-09-25T10:07:41.293Z,13.00
2022-09-25T10:10:16.841Z,12.90
2022-09-25T10:12:52.134Z,13.10
2022-09-25T10:15:30.276Z,13.30
2022-09-25T10:18:00.868Z,13.20
2022-09-25T10:21:00.987Z,13.20
2022-09-25T10:28:27.986Z,13.30
2022-09-25T10:30:58.226Z,13.30
2022-09-25T10:33:27.263Z,13.50
2022-09-25T10:35:55.139Z,13.70
2022-09-25T10:38:43.189Z,13.30
2022-09-25T10:41:15.915Z,13.50
2022-09-25T10:43:58.323Z,13.50
2022-09-25T10:46:47.991Z,13.50
2022-09-25T10:49:36.607Z,13.50
2022-09-25T10:52:06.541Z,13.60
2022-09-25T10:59:29.375Z,13.50
2022-09-25T11:04:34.451Z,13.60
2022-09-25T11:07:04.980Z,13.60
2022-09-25T11:09:33.732Z,13.70
2022-09-25T11:12:16.574Z,13.50
2022-09-25T11:14:55.377Z,13.70
2022-09-25T11:17:43.156Z,13.80
2022-09-25T11:20:18.361Z,13.80
2022-09-25T11:23:21.583Z,14.10
2022-09-25T11:26:09.546Z,13.70
2022-09-25T11:28:54.713Z,13.80
2022-09-25T11:31:34.431Z,13.80
2022-09-25T11:34:23.892Z,14.00
2022-09-25T11:37:14.725Z,14.00
2022-09-25T11:40:08.638Z,14.10
2022-09-25T11:42:55.395Z,14.10
2022-09-25T11:45:52.459Z,14.00
2022-09-25T11:48:40.511Z,14.00
2022-09-25T11:51:46.374Z,14.00
2022-09-25T11:54:43.956Z,14.40
2022-09-25T11:57:34.639Z,14.10
2022-09-25T12:00:24.597Z,14.10
2022-09-25T12:03:09.691Z,14.00
2022-09-25T12:05:51.573Z,14.20
2022-09-25T12:11:04.250Z,14.40
2022-09-25T12:13:44.732Z,14.00
2022-09-25T12:16:19.670Z,14.10
2022-09-25T12:19:01.659Z,14.10
2022-09-25T12:21:54.749Z,14.50
2022-09-25T12:24:42.646Z,14.20
2022-09-25T12:27:28.544Z,14.30
2022-09-25T12:32:40.826Z,14.20
2022-09-25T12:35:18.678Z,14.40
2022-09-25T12:37:53.152Z,14.20
2022-09-25T12:40:36.904Z,14.40
2022-09-25T12:43:30.313Z,14.30
2022-09-25T12:46:15.183Z,14.20
2022-09-25T12:49:05.412Z,14.30
2022-09-25T12:51:45.882Z,14.30
2022-09-25T12:54:32.522Z,14.30
2022-09-25T12:57:10.252Z,14.20
2022-09-25T12:59:46.642Z,14.20
2022-09-25T13:02:47.233Z,14.10
2022-09-25T13:05:22.457Z,14.30
2022-09-25T13:08:00.700Z,14.30
2022-09-25T13:10:36.715Z,14.40
2022-09-25T13:13:10.690Z,14.50
2022-09-25T13:15:41.738Z,14.70
2022-09-25T13:18:16.794Z,14.80
2022-09-25T13:20:54.949Z,14.90
2022-09-25T13:26:00.505Z,14.70
2022-09-25T13:28:49.348Z,14.80
2022-09-25T13:31:28.924Z,14.90
2022-09-25T13:34:01.887Z,14.80
2022-09-25T13:37:04.061Z,15.20
2022-09-25T13:39:59.202Z,15.20
2022-09-25T13:42:39.624Z,15.40
2022-09-25T13:45:25.896Z,15.60
2022-09-25T13:48:12.498Z,15.80
2022-09-25T13:50:47.432Z,15.70
2022-09-25T13:53:26.725Z,16.00
2022-09-25T13:55:56.529Z,16.50
2022-09-25T13:58:28.741Z,16.10
2022-09-25T14:01:02.878Z,16.20
2022-09-25T14:03:49.584Z,16.10
2022-09-25T14:06:24.774Z,16.20
2022-09-25T14:08:55.800Z,16.30
2022-09-25T14:11:33.385Z,16.40
2022-09-25T14:14:03.698Z,16.20
2022-09-25T14:16:47.842Z,15.90
2022-09-25T14:19:37.687Z,16.10
2022-09-25T14:22:05.925Z,16.20
2022-09-25T14:24:33.044Z,16.00
2022-09-25T14:27:01.461Z,16.10
2022-09-25T14:29:32.771Z,16.10
2022-09-25T14:32:07.251Z,16.10
2022-09-25T14:34:56.035Z,16.20
2022-09-25T14:40:14.192Z,16.00
2022-09-25T14:45:24.522Z,16.30
2022-09-25T14:47:55.590Z,16.40
2022-09-25T14:50:26.120Z,16.50
2022-09-25T14:52:58.175Z,16.50
2022-09-25T14:55:27.970Z,16.60
2022-09-25T14:57:58.046Z,16.60
2022-09-25T15:00:25.058Z,16.60
2022-09-25T15:02:55.114Z,16.50
2022-09-25T15:10:38.389Z,16.80
2022-09-25T15:13:17.714Z,16.20
2022-09-25T15:16:10.829Z,16.30
2022-09-25T15:18:40.561Z,16.40
2022-09-25T15:21:19.822Z,16.70
2022-09-25T15:26:18.593Z,16.20
2022-09-25T15:33:41.561Z,16.20
2022-09-25T15:36:20.245Z,16.10
2022-09-25T15:38:53.778Z,16.10
2022-09-25T15:41:22.733Z,16.10
2022-09-25T15:43:51.334Z,16.00
2022-09-25T15:46:42.621Z,15.80
2022-09-25T15:49:15.501Z,15.80
2022-09-25T15:51:52.854Z,15.80
2022-09-25T15:54:33.667Z,15.90
2022-09-25T15:57:03.190Z,15.60
2022-09-25T15:59:36.338Z,15.50
2022-09-25T16:02:38.677Z,15.50
2022-09-25T16:05:10.050Z,15.50
2022-09-25T16:07:39.024Z,15.40
2022-09-25T16:10:14.336Z,15.40
2022-09-25T16:15:32.038Z,15.00
2022-09-25T16:18:36.646Z,15.30
2022-09-25T16:21:15.000Z,15.10
2022-09-25T16:26:22.599Z,15.20
2022-09-25T16:29:04.818Z,14.80
2022-09-25T16:31:34.077Z,14.70
2022-09-25T16:36:38.985Z,14.60
2022-09-25T16:39:09.378Z,14.60
2022-09-25T16:41:38.034Z,14.60
2022-09-25T16:44:36.304Z,14.70
2022-09-25T16:47:12.732Z,14.50
2022-09-25T16:52:08.582Z,14.30
2022-09-25T16:54:37.822Z,14.30
2022-09-25T16:59:31.948Z,14.40
2022-09-25T17:02:25.573Z,14.10
2022-09-25T17:09:47.600Z,14.00
2022-09-25T17:12:20.943Z,14.00
2022-09-25T17:14:48.607Z,14.10
2022-09-25T17:17:19.287Z,13.90
2022-09-25T17:27:17.221Z,13.90
2022-09-25T17:32:15.348Z,13.90
2022-09-25T17:34:44.199Z,13.80
2022-09-25T18:04:25.061Z,13.50
2022-09-25T18:11:46.697Z,13.70
2022-09-25T18:14:15.453Z,13.40
2022-09-25T18:16:44.007Z,13.30
2022-09-25T18:19:38.058Z,13.30
2022-09-25T18:27:13.462Z,13.20
2022-09-25T18:34:35.054Z,13.40
2022-09-25T18:54:15.363Z,13.40
2022-09-25T19:01:38.563Z,12.80
2022-09-25T19:04:06.542Z,13.10
2022-09-25T19:09:01.324Z,12.70
2022-09-25T19:11:28.738Z,13.10
2022-09-25T19:13:56.491Z,13.20
2022-09-25T19:16:23.524Z,13.20
2022-09-25T19:21:22.766Z,13.00
2022-09-25T19:26:20.987Z,13.00
2022-09-25T19:28:48.628Z,13.10
2022-09-25T19:31:21.977Z,13.10
2022-09-25T19:36:21.900Z,13.00
2022-09-25T19:51:08.436Z,12.70
2022-09-25T19:53:36.325Z,13.00
2022-09-25T19:56:03.790Z,13.10
2022-09-25T20:01:14.680Z,13.00
2022-09-25T20:03:42.574Z,13.00
2022-09-25T20:06:10.641Z,13.00
2022-09-25T20:11:19.787Z,13.00
2022-09-25T20:13:48.377Z,12.90
2022-09-25T20:16:17.986Z,13.10
2022-09-25T20:18:49.058Z,13.00
2022-09-25T20:21:17.635Z,12.70
2022-09-25T20:26:17.941Z,12.90
2022-09-25T20:28:45.973Z,12.80
2022-09-25T20:31:14.545Z,12.80
2022-09-25T20:33:42.440Z,12.90
2022-09-25T20:36:11.722Z,12.80
2022-09-25T20:41:14.254Z,12.90
2022-09-25T20:46:14.506Z,12.70
2022-09-25T20:48:47.181Z,12.60
2022-09-25T20:51:16.430Z,12.70
2022-09-25T20:53:43.849Z,12.70
2022-09-25T20:56:15.627Z,12.70
2022-09-25T20:58:44.128Z,12.70
2022-09-25T21:01:15.298Z,12.70
2022-09-25T21:03:44.785Z,13.30
2022-09-25T21:06:26.804Z,12.70
2022-09-25T21:08:55.735Z,12.80
2022-09-25T21:11:24.145Z,12.80
2022-09-25T21:13:53.227Z,12.70
2022-09-25T21:16:22.144Z,12.70
2022-09-25T21:18:54.895Z,12.70
2022-09-25T21:23:52.930Z,12.60
2022-09-25T21:28:51.516Z,12.60
2022-09-25T21:31:30.691Z,12.60
2022-09-25T21:33:58.840Z,12.30
2022-09-25T21:36:26.771Z,12.50
2022-09-25T21:41:23.200Z,12.30
2022-09-25T21:43:54.567Z,12.40
2022-09-25T21:48:57.638Z,12.30
2022-09-25T21:51:29.653Z,12.30
2022-09-25T21:56:26.251Z,12.30
2022-09-25T21:58:54.726Z,12.20
2022-09-25T22:01:24.704Z,12.20
2022-09-25T22:03:55.370Z,12.20
2022-09-25T22:06:25.433Z,12.10
2022-09-25T22:08:58.344Z,12.40
2022-09-25T22:16:23.533Z,12.10
2022-09-25T22:21:19.694Z,12.00
2022-09-25T22:26:15.751Z,12.00
2022-09-25T22:28:43.518Z,12.00
2022-09-25T22:31:13.232Z,12.00
2022-09-25T22:36:09.593Z,12.00
2022-09-25T22:38:37.286Z,11.90
2022-09-25T22:41:08.906Z,12.00
2022-09-25T22:43:36.401Z,11.90
2022-09-25T22:51:00.709Z,12.00
2022-09-25T22:53:29.549Z,12.00
2022-09-25T23:00:52.360Z,12.00
2022-09-25T23:08:14.581Z,12.00
2022-09-25T23:20:54.896Z,12.00
2022-09-25T23:47:56.368Z,11.60
